Terminal Aerodrome Forecast
Issued by NWS Wakefield, VA

Home | Current Version | Previous Version | Text Only | Print | Product List | Glossary On
Versions: 1 2 3 4 5 6 7 8 9 10 11 12 13 14 15 16 17 18 19 20 21 22 23 24 25 26 27 28 29
523
FTUS41 KAKQ 201739 CCA
TAFSBY
TAF COR
KSBY 201739Z 2018/2118 22013G20KT P6SM OVC012
     FM202200 21009KT P6SM BKN025
     FM210400 20008KT 2SM BR BKN015
     FM210800 21008KT 1/2SM FG OVC005
     FM211300 21008KT 1SM BR BKN007
     FM211400 21008KT P6SM BKN025=

USA.gov is the U.S. government's official web portal to all federal, state and local government web resources and services.